sensor_id;sensor_type;location;lat;lon;timestamp;pressure;altitude;pressure_sealevel;temperature;humidity
18323;BME280;9287;49.456;11.064;2023-08-24T00:00:31;98384.31;;;21.32;100.00
18323;BME280;9287;49.456;11.064;2023-08-24T00:03:00;98380.06;;;21.24;100.00
18323;BME280;9287;49.456;11.064;2023-08-24T00:05:32;98378.13;;;21.17;100.00
18323;BME280;9287;49.456;11.064;2023-08-24T00:08:00;98373.72;;;21.23;100.00
18323;BME280;9287;49.456;11.064;2023-08-24T00:10:29;98377.75;;;21.15;100.00
18323;BME280;9287;49.456;11.064;2023-08-24T00:12:56;98377.75;;;21.15;100.00
18323;BME280;9287;49.456;11.064;2023-08-24T00:15:24;98377.00;;;21.11;100.00
18323;BME280;9287;49.456;11.064;2023-08-24T00:17:52;98367.53;;;21.05;100.00
18323;BME280;9287;49.456;11.064;2023-08-24T00:20:20;98373.53;;;21.00;100.00
18323;BME280;9287;49.456;11.064;2023-08-24T00:22:50;98370.84;;;20.93;100.00
18323;BME280;9287;49.456;11.064;2023-08-24T00:25:18;98367.56;;;21.01;100.00
18323;BME280;9287;49.456;11.064;2023-08-24T00:27:46;98361.66;;;20.96;100.00
18323;BME280;9287;49.456;11.064;2023-08-24T00:30:15;98362.06;;;20.98;100.00
18323;BME280;9287;49.456;11.064;2023-08-24T00:32:43;98358.31;;;20.77;100.00
18323;BME280;9287;49.456;11.064;2023-08-24T00:35:11;98363.78;;;20.84;100.00
18323;BME280;9287;49.456;11.064;2023-08-24T00:37:40;98355.06;;;20.82;100.00
18323;BME280;9287;49.456;11.064;2023-08-24T00:40:10;98352.38;;;20.75;100.00
18323;BME280;9287;49.456;11.064;2023-08-24T00:42:39;98359.63;;;20.62;100.00
18323;BME280;9287;49.456;11.064;2023-08-24T00:45:08;98357.44;;;20.36;100.00
18323;BME280;9287;49.456;11.064;2023-08-24T00:47:37;98363.41;;;20.38;100.00
18323;BME280;9287;49.456;11.064;2023-08-24T00:50:07;98360.19;;;20.43;100.00
18323;BME280;9287;49.456;11.064;2023-08-24T00:52:36;98350.66;;;20.44;100.00
18323;BME280;9287;49.456;11.064;2023-08-24T00:55:07;98348.75;;;20.34;100.00
18323;BME280;9287;49.456;11.064;2023-08-24T00:57:37;98346.00;;;20.27;100.00
18323;BME280;9287;49.456;11.064;2023-08-24T01:00:08;98350.38;;;20.28;100.00
18323;BME280;9287;49.456;11.064;2023-08-24T01:02:37;98347.56;;;20.31;100.00
18323;BME280;9287;49.456;11.064;2023-08-24T01:05:07;98344.88;;;20.24;100.00
18323;BME280;9287;49.456;11.064;2023-08-24T01:07:37;98341.22;;;20.31;100.00
18323;BME280;9287;49.456;11.064;2023-08-24T01:10:09;98345.28;;;20.23;100.00
18323;BME280;9287;49.456;11.064;2023-08-24T01:12:50;98348.47;;;20.17;100.00
18323;BME280;9287;49.456;11.064;2023-08-24T01:15:25;98346.13;;;20.09;100.00
18323;BME280;9287;49.456;11.064;2023-08-24T01:18:05;98341.47;;;19.95;100.00
18323;BME280;9287;49.456;11.064;2023-08-24T01:20:34;98341.47;;;19.99;100.00
18323;BME280;9287;49.456;11.064;2023-08-24T01:23:14;98342.34;;;19.85;100.00
18323;BME280;9287;49.456;11.064;2023-08-24T01:25:51;98345.50;;;19.87;100.00
18323;BME280;9287;49.456;11.064;2023-08-24T01:28:25;98337.53;;;19.96;100.00
18323;BME280;9287;49.456;11.064;2023-08-24T01:30:56;98335.22;;;19.84;100.00
18323;BME280;9287;49.456;11.064;2023-08-24T01:33:28;98343.63;;;19.70;100.00
18323;BME280;9287;49.456;11.064;2023-08-24T01:35:57;98340.09;;;19.66;100.00
18323;BME280;9287;49.456;11.064;2023-08-24T01:38:26;98339.34;;;19.47;100.00
18323;BME280;9287;49.456;11.064;2023-08-24T01:40:59;98328.22;;;19.65;100.00
18323;BME280;9287;49.456;11.064;2023-08-24T01:43:37;98328.19;;;19.69;100.00
18323;BME280;9287;49.456;11.064;2023-08-24T01:46:13;98339.31;;;19.62;100.00
18323;BME280;9287;49.456;11.064;2023-08-24T01:48:43;98342.13;;;19.55;100.00
18323;BME280;9287;49.456;11.064;2023-08-24T01:51:20;98332.63;;;19.56;100.00
18323;BME280;9287;49.456;11.064;2023-08-24T01:53:50;98350.38;;;19.62;100.00
18323;BME280;9287;49.456;11.064;2023-08-24T01:56:19;98347.63;;;19.62;100.00
18323;BME280;9287;49.456;11.064;2023-08-24T01:58:49;98342.88;;;19.59;100.00
18323;BME280;9287;49.456;11.064;2023-08-24T02:01:17;98340.94;;;19.56;100.00
18323;BME280;9287;49.456;11.064;2023-08-24T02:03:45;98341.72;;;19.49;100.00
18323;BME280;9287;49.456;11.064;2023-08-24T02:06:13;98337.34;;;19.59;100.00
18323;BME280;9287;49.456;11.064;2023-08-24T02:08:41;98334.97;;;19.61;100.00
18323;BME280;9287;49.456;11.064;2023-08-24T02:11:11;98329.44;;;19.57;100.00
18323;BME280;9287;49.456;11.064;2023-08-24T02:13:39;98325.84;;;19.64;100.00
18323;BME280;9287;49.456;11.064;2023-08-24T02:16:08;98328.63;;;19.64;100.00
18323;BME280;9287;49.456;11.064;2023-08-24T02:18:36;98328.19;;;19.69;100.00
18323;BME280;9287;49.456;11.064;2023-08-24T02:21:07;98330.59;;;19.67;100.00
18323;BME280;9287;49.456;11.064;2023-08-24T02:23:36;98329.00;;;19.69;100.00
18323;BME280;9287;49.456;11.064;2023-08-24T02:26:04;98328.28;;;19.55;100.00
18323;BME280;9287;49.456;11.064;2023-08-24T02:28:33;98330.19;;;19.65;100.00
18323;BME280;9287;49.456;11.064;2023-08-24T02:31:02;98332.25;;;19.39;100.00
18323;BME280;9287;49.456;11.064;2023-08-24T02:33:32;98325.13;;;19.53;100.00
18323;BME280;9287;49.456;11.064;2023-08-24T02:36:00;98330.59;;;19.60;100.00
18323;BME280;9287;49.456;11.064;2023-08-24T02:38:27;98338.19;;;19.41;100.00
18323;BME280;9287;49.456;11.064;2023-08-24T02:41:02;98345.75;;;19.30;100.00
18323;BME280;9287;49.456;11.064;2023-08-24T02:43:30;98342.59;;;19.28;100.00
18323;BME280;9287;49.456;11.064;2023-08-24T02:46:02;98342.59;;;19.32;100.00
18323;BME280;9287;49.456;11.064;2023-08-24T02:48:33;98336.25;;;19.31;100.00
18323;BME280;9287;49.456;11.064;2023-08-24T02:51:03;98337.91;;;19.22;100.00
18323;BME280;9287;49.456;11.064;2023-08-24T02:53:32;98335.47;;;19.27;100.00
18323;BME280;9287;49.456;11.064;2023-08-24T02:56:00;98334.69;;;19.30;100.00
18323;BME280;9287;49.456;11.064;2023-08-24T02:58:28;98343.44;;;19.18;100.00
18323;BME280;9287;49.456;11.064;2023-08-24T03:00:56;98343.44;;;19.18;100.00
18323;BME280;9287;49.456;11.064;2023-08-24T03:03:26;98348.19;;;19.21;100.00
18323;BME280;9287;49.456;11.064;2023-08-24T03:05:57;98349.72;;;19.22;100.00
18323;BME280;9287;49.456;11.064;2023-08-24T03:08:26;98343.44;;;19.18;100.00
18323;BME280;9287;49.456;11.064;2023-08-24T03:10:54;98356.09;;;19.19;100.00
18323;BME280;9287;49.456;11.064;2023-08-24T03:13:22;98363.16;;;19.24;100.00
18323;BME280;9287;49.456;11.064;2023-08-24T03:15:50;98360.00;;;19.29;100.00
18323;BME280;9287;49.456;11.064;2023-08-24T03:18:19;98368.72;;;19.24;100.00
18323;BME280;9287;49.456;11.064;2023-08-24T03:20:48;98363.22;;;19.13;100.00
18323;BME280;9287;49.456;11.064;2023-08-24T03:23:17;98360.03;;;19.15;100.00
18323;BME280;9287;49.456;11.064;2023-08-24T03:25:45;98354.50;;;19.18;100.00
18323;BME280;9287;49.456;11.064;2023-08-24T03:28:13;98354.13;;;19.09;100.00
18323;BME280;9287;49.456;11.064;2023-08-24T03:30:46;98359.66;;;19.09;100.00
18323;BME280;9287;49.456;11.064;2023-08-24T03:33:16;98353.00;;;18.82;100.00
18323;BME280;9287;49.456;11.064;2023-08-24T03:35:43;98348.28;;;18.78;100.00
18323;BME280;9287;49.456;11.064;2023-08-24T03:38:11;98350.25;;;18.82;100.00
18323;BME280;9287;49.456;11.064;2023-08-24T03:40:41;98353.75;;;19.00;100.00
18323;BME280;9287;49.456;11.064;2023-08-24T03:43:08;98360.09;;;18.97;100.00
18323;BME280;9287;49.456;11.064;2023-08-24T03:45:36;98352.97;;;18.96;100.00
18323;BME280;9287;49.456;11.064;2023-08-24T03:48:05;98356.16;;;18.80;100.00
18323;BME280;9287;49.456;11.064;2023-08-24T03:50:33;98348.28;;;18.64;100.00
18323;BME280;9287;49.456;11.064;2023-08-24T03:53:01;98345.94;;;18.63;100.00
18323;BME280;9287;49.456;11.064;2023-08-24T03:55:28;98335.66;;;18.63;100.00
18323;BME280;9287;49.456;11.064;2023-08-24T03:57:58;98334.84;;;18.81;100.00
18323;BME280;9287;49.456;11.064;2023-08-24T04:00:28;98340.31;;;18.95;100.00
18323;BME280;9287;49.456;11.064;2023-08-24T04:02:57;98335.56;;;18.99;100.00
18323;BME280;9287;49.456;11.064;2023-08-24T04:05:25;98337.94;;;19.04;100.00
18323;BME280;9287;49.456;11.064;2023-08-24T04:07:54;98326.50;;;18.91;100.00
18323;BME280;9287;49.456;11.064;2023-08-24T04:10:22;98326.09;;;18.93;100.00
18323;BME280;9287;49.456;11.064;2023-08-24T04:12:50;98330.84;;;18.89;100.00
18323;BME280;9287;49.456;11.064;2023-08-24T04:15:22;98336.00;;;18.87;100.00
18323;BME280;9287;49.456;11.064;2023-08-24T04:17:49;98325.34;;;18.82;100.00
18323;BME280;9287;49.456;11.064;2023-08-24T04:20:18;98320.59;;;18.82;100.00
18323;BME280;9287;49.456;11.064;2023-08-24T04:22:46;98327.31;;;18.70;100.00
18323;BME280;9287;49.456;11.064;2023-08-24T04:25:14;98335.63;;;18.77;100.00
18323;BME280;9287;49.456;11.064;2023-08-24T04:27:44;98336.44;;;18.46;100.00
18323;BME280;9287;49.456;11.064;2023-08-24T04:30:12;98341.16;;;18.53;100.00
18323;BME280;9287;49.456;11.064;2023-08-24T04:32:43;98336.84;;;18.66;100.00
18323;BME280;9287;49.456;11.064;2023-08-24T04:35:11;98346.69;;;18.70;100.00
18323;BME280;9287;49.456;11.064;2023-08-24T04:37:39;98338.03;;;18.65;100.00
18323;BME280;9287;49.456;11.064;2023-08-24T04:40:07;98328.53;;;18.48;100.00
18323;BME280;9287;49.456;11.064;2023-08-24T04:42:36;98323.78;;;18.52;100.00
18323;BME280;9287;49.456;11.064;2023-08-24T04:45:04;98334.06;;;18.62;100.00
18323;BME280;9287;49.456;11.064;2023-08-24T04:47:32;98332.44;;;18.54;100.00
18323;BME280;9287;49.456;11.064;2023-08-24T04:50:01;98329.31;;;18.63;100.00
18323;BME280;9287;49.456;11.064;2023-08-24T04:52:30;98338.03;;;18.61;100.00
18323;BME280;9287;49.456;11.064;2023-08-24T04:54:58;98343.13;;;18.81;100.00
18323;BME280;9287;49.456;11.064;2023-08-24T04:57:26;98337.19;;;18.86;100.00
18323;BME280;9287;49.456;11.064;2023-08-24T04:59:55;98338.00;;;18.75;100.00
18323;BME280;9287;49.456;11.064;2023-08-24T05:02:26;98330.88;;;18.82;100.00
18323;BME280;9287;49.456;11.064;2023-08-24T05:04:55;98341.13;;;18.92;100.00
18323;BME280;9287;49.456;11.064;2023-08-24T05:07:25;98340.34;;;18.91;100.00
18323;BME280;9287;49.456;11.064;2023-08-24T05:09:55;98329.25;;;18.98;100.00
18323;BME280;9287;49.456;11.064;2023-08-24T05:12:23;98329.25;;;18.95;100.00
18323;BME280;9287;49.456;11.064;2023-08-24T05:14:56;98318.19;;;18.95;100.00
18323;BME280;9287;49.456;11.064;2023-08-24T05:17:26;98318.56;;;19.04;100.00
18323;BME280;9287;49.456;11.064;2023-08-24T05:19:58;98315.03;;;19.00;100.00
18323;BME280;9287;49.456;11.064;2023-08-24T05:22:28;98320.13;;;19.05;100.00
18323;BME280;9287;49.456;11.064;2023-08-24T05:24:56;98343.44;;;19.18;100.00
18323;BME280;9287;49.456;11.064;2023-08-24T05:27:28;98339.41;;;19.33;100.00
18323;BME280;9287;49.456;11.064;2023-08-24T05:29:57;98341.72;;;19.45;100.00
18323;BME280;9287;49.456;11.064;2023-08-24T05:32:25;98336.16;;;19.60;100.00
18323;BME280;9287;49.456;11.064;2023-08-24T05:34:53;98335.81;;;19.51;100.00
18323;BME280;9287;49.456;11.064;2023-08-24T05:37:25;98334.53;;;19.73;100.00
18323;BME280;9287;49.456;11.064;2023-08-24T05:39:55;98330.09;;;19.79;100.00
18323;BME280;9287;49.456;11.064;2023-08-24T05:42:22;98326.44;;;19.96;100.00
18323;BME280;9287;49.456;11.064;2023-08-24T05:44:51;98327.84;;;20.22;100.00
18323;BME280;9287;49.456;11.064;2023-08-24T05:47:19;98327.81;;;20.26;100.00
18323;BME280;9287;49.456;11.064;2023-08-24T05:49:47;98328.53;;;20.37;100.00
18323;BME280;9287;49.456;11.064;2023-08-24T05:52:15;98322.19;;;20.40;100.00
18323;BME280;9287;49.456;11.064;2023-08-24T05:54:43;98339.56;;;20.44;100.00
18323;BME280;9287;49.456;11.064;2023-08-24T05:57:12;98341.22;;;20.31;100.00
18323;BME280;9287;49.456;11.064;2023-08-24T05:59:40;98347.56;;;20.38;100.00
18323;BME280;9287;49.456;11.064;2023-08-24T06:02:08;98349.53;;;20.38;100.00
18323;BME280;9287;49.456;11.064;2023-08-24T06:04:36;98340.41;;;20.34;100.00
18323;BME280;9287;49.456;11.064;2023-08-24T06:07:04;98329.22;;;20.48;100.00
18323;BME280;9287;49.456;11.064;2023-08-24T06:09:32;98329.22;;;20.48;100.00
18323;BME280;9287;49.456;11.064;2023-08-24T06:12:01;98310.28;;;20.43;100.00
18323;BME280;9287;49.456;11.064;2023-08-24T06:14:30;98300.84;;;20.30;100.00
18323;BME280;9287;49.456;11.064;2023-08-24T06:16:59;98281.81;;;20.32;100.00
18323;BME280;9287;49.456;11.064;2023-08-24T06:19:27;98259.25;;;20.30;100.00
18323;BME280;9287;49.456;11.064;2023-08-24T06:21:56;98249.47;;;20.14;100.00
18323;BME280;9287;49.456;11.064;2023-08-24T06:24:26;98248.38;;;20.05;100.00
18323;BME280;9287;49.456;11.064;2023-08-24T06:26:55;98223.63;;;19.80;100.00
18323;BME280;9287;49.456;11.064;2023-08-24T06:29:26;98225.84;;;19.99;100.00
18323;BME280;9287;49.456;11.064;2023-08-24T06:31:56;98235.13;;;19.75;100.00
18323;BME280;9287;49.456;11.064;2023-08-24T06:34:25;98249.06;;;19.68;100.00
18323;BME280;9287;49.456;11.064;2023-08-24T06:36:53;98249.28;;;19.91;100.00
18323;BME280;9287;49.456;11.064;2023-08-24T06:39:23;98248.72;;;20.10;100.00
18323;BME280;9287;49.456;11.064;2023-08-24T06:41:51;98237.88;;;20.27;100.00
18323;BME280;9287;49.456;11.064;2023-08-24T06:44:20;98238.13;;;19.98;100.00
18323;BME280;9287;49.456;11.064;2023-08-24T06:46:48;98238.00;;;20.12;100.00
18323;BME280;9287;49.456;11.064;2023-08-24T06:49:17;98224.75;;;20.38;100.00
18323;BME280;9287;49.456;11.064;2023-08-24T06:51:46;98218.19;;;20.59;100.00
18323;BME280;9287;49.456;11.064;2023-08-24T06:54:14;98219.88;;;21.71;100.00
18323;BME280;9287;49.456;11.064;2023-08-24T06:56:42;98238.84;;;23.48;100.00
18323;BME280;9287;49.456;11.064;2023-08-24T06:59:11;98249.34;;;25.83;98.22
18323;BME280;9287;49.456;11.064;2023-08-24T07:01:39;98246.28;;;27.19;83.72
18323;BME280;9287;49.456;11.064;2023-08-24T07:04:07;98259.66;;;25.86;94.18
18323;BME280;9287;49.456;11.064;2023-08-24T07:06:37;98269.00;;;25.41;97.54
18323;BME280;9287;49.456;11.064;2023-08-24T07:09:04;98273.91;;;24.79;100.00
18323;BME280;9287;49.456;11.064;2023-08-24T07:11:34;98269.69;;;24.10;100.00
18323;BME280;9287;49.456;11.064;2023-08-24T07:14:02;98265.09;;;23.87;100.00
18323;BME280;9287;49.456;11.064;2023-08-24T07:16:30;98259.72;;;23.40;100.00
18323;BME280;9287;49.456;11.064;2023-08-24T07:18:58;98272.31;;;23.09;100.00
18323;BME280;9287;49.456;11.064;2023-08-24T07:21:27;98277.03;;;22.92;100.00
18323;BME280;9287;49.456;11.064;2023-08-24T07:23:56;98277.47;;;22.90;100.00
18323;BME280;9287;49.456;11.064;2023-08-24T07:26:24;98282.88;;;22.78;100.00
18323;BME280;9287;49.456;11.064;2023-08-24T07:28:53;98308.66;;;22.82;100.00
18323;BME280;9287;49.456;11.064;2023-08-24T07:31:21;98313.47;;;23.21;100.00
18323;BME280;9287;49.456;11.064;2023-08-24T07:33:50;98314.28;;;24.29;100.00
18323;BME280;9287;49.456;11.064;2023-08-24T07:36:17;98322.91;;;25.96;100.00
18323;BME280;9287;49.456;11.064;2023-08-24T07:38:46;98315.28;;;26.34;94.68
18323;BME280;9287;49.456;11.064;2023-08-24T07:41:15;98320.41;;;26.49;90.84
18323;BME280;9287;49.456;11.064;2023-08-24T07:43:44;98322.41;;;27.52;81.04
18323;BME280;9287;49.456;11.064;2023-08-24T07:46:13;98321.88;;;27.00;83.21
18323;BME280;9287;49.456;11.064;2023-08-24T07:48:40;98317.28;;;26.09;90.74
18323;BME280;9287;49.456;11.064;2023-08-24T07:51:08;98318.59;;;24.79;100.00
18323;BME280;9287;49.456;11.064;2023-08-24T07:53:36;98326.31;;;24.59;100.00
18323;BME280;9287;49.456;11.064;2023-08-24T07:56:04;98323.19;;;24.57;100.00
18323;BME280;9287;49.456;11.064;2023-08-24T07:58:34;98330.47;;;24.02;100.00
18323;BME280;9287;49.456;11.064;2023-08-24T08:01:02;98326.97;;;24.95;100.00
18323;BME280;9287;49.456;11.064;2023-08-24T08:03:31;98324.53;;;27.04;85.79
18323;BME280;9287;49.456;11.064;2023-08-24T08:06:00;98330.00;;;28.35;71.72
18323;BME280;9287;49.456;11.064;2023-08-24T08:08:28;98324.75;;;28.64;68.90
18323;BME280;9287;49.456;11.064;2023-08-24T08:10:59;98319.44;;;29.67;61.61
18323;BME280;9287;49.456;11.064;2023-08-24T08:13:28;98325.53;;;30.59;54.73
18323;BME280;9287;49.456;11.064;2023-08-24T08:16:03;98332.03;;;32.80;45.92
18323;BME280;9287;49.456;11.064;2023-08-24T08:18:32;98328.25;;;34.07;42.97
18323;BME280;9287;49.456;11.064;2023-08-24T08:21:01;98322.78;;;33.00;43.35
18323;BME280;9287;49.456;11.064;2023-08-24T08:23:30;98323.13;;;34.48;38.64
18323;BME280;9287;49.456;11.064;2023-08-24T08:25:58;98314.09;;;36.30;36.24
18323;BME280;9287;49.456;11.064;2023-08-24T08:28:26;98318.38;;;33.97;40.27
18323;BME280;9287;49.456;11.064;2023-08-24T08:30:53;98306.88;;;31.24;45.61
18323;BME280;9287;49.456;11.064;2023-08-24T08:33:23;98304.19;;;31.73;46.06
18323;BME280;9287;49.456;11.064;2023-08-24T08:35:51;98291.44;;;31.34;47.49
18323;BME280;9287;49.456;11.064;2023-08-24T08:38:19;98286.47;;;33.70;41.99
18323;BME280;9287;49.456;11.064;2023-08-24T08:40:49;98290.50;;;34.21;39.25
18323;BME280;9287;49.456;11.064;2023-08-24T08:43:17;98281.53;;;36.14;36.61
18323;BME280;9287;49.456;11.064;2023-08-24T08:45:45;98284.88;;;35.62;37.73
18323;BME280;9287;49.456;11.064;2023-08-24T08:48:13;98283.94;;;34.89;38.26
18323;BME280;9287;49.456;11.064;2023-08-24T08:50:42;98276.31;;;34.58;38.19
18323;BME280;9287;49.456;11.064;2023-08-24T08:53:10;98273.91;;;35.05;36.59
18323;BME280;9287;49.456;11.064;2023-08-24T08:55:39;98261.16;;;36.90;34.12
18323;BME280;9287;49.456;11.064;2023-08-24T08:58:07;98258.28;;;35.43;34.94
18323;BME280;9287;49.456;11.064;2023-08-24T09:00:35;98256.47;;;35.73;34.85
18323;BME280;9287;49.456;11.064;2023-08-24T09:03:04;98260.59;;;37.44;33.31
18323;BME280;9287;49.456;11.064;2023-08-24T09:05:32;98261.16;;;35.99;32.88
18323;BME280;9287;49.456;11.064;2023-08-24T09:08:02;98259.06;;;36.96;32.89
18323;BME280;9287;49.456;11.064;2023-08-24T09:10:31;98247.16;;;36.34;33.33
18323;BME280;9287;49.456;11.064;2023-08-24T09:12:59;98241.91;;;37.07;32.32
18323;BME280;9287;49.456;11.064;2023-08-24T09:15:27;98236.50;;;37.45;31.45
18323;BME280;9287;49.456;11.064;2023-08-24T09:17:58;98227.06;;;36.79;33.21
18323;BME280;9287;49.456;11.064;2023-08-24T09:20:27;98216.97;;;35.58;35.24
18323;BME280;9287;49.456;11.064;2023-08-24T09:22:56;98201.47;;;34.39;37.08
18323;BME280;9287;49.456;11.064;2023-08-24T09:25:26;98187.69;;;32.89;39.68
18323;BME280;9287;49.456;11.064;2023-08-24T09:27:57;98194.72;;;29.94;48.15
18323;BME280;9287;49.456;11.064;2023-08-24T09:30:29;98212.22;;;28.50;56.67
18323;BME280;9287;49.456;11.064;2023-08-24T09:33:01;98210.03;;;28.99;59.08
18323;BME280;9287;49.456;11.064;2023-08-24T09:35:35;98212.09;;;31.02;48.53
18323;BME280;9287;49.456;11.064;2023-08-24T09:38:17;98208.72;;;30.60;48.55
18323;BME280;9287;49.456;11.064;2023-08-24T09:40:50;98222.28;;;29.48;54.63
18323;BME280;9287;49.456;11.064;2023-08-24T09:43:18;98215.88;;;29.47;53.50
18323;BME280;9287;49.456;11.064;2023-08-24T09:45:50;98213.50;;;30.44;52.15
18323;BME280;9287;49.456;11.064;2023-08-24T09:48:19;98207.97;;;32.88;43.38
18323;BME280;9287;49.456;11.064;2023-08-24T09:50:49;98213.38;;;34.06;40.54
18323;BME280;9287;49.456;11.064;2023-08-24T09:53:18;98198.91;;;35.67;35.96
18323;BME280;9287;49.456;11.064;2023-08-24T09:55:53;98203.16;;;36.46;35.48
18323;BME280;9287;49.456;11.064;2023-08-24T09:58:22;98197.38;;;35.66;35.12
18323;BME280;9287;49.456;11.064;2023-08-24T10:00:51;98192.81;;;34.11;37.14
18323;BME280;9287;49.456;11.064;2023-08-24T10:03:20;98187.03;;;35.63;36.17
18323;BME280;9287;49.456;11.064;2023-08-24T10:05:51;98185.63;;;33.78;37.99
18323;BME280;9287;49.456;11.064;2023-08-24T10:08:27;98179.78;;;35.96;35.56
18323;BME280;9287;49.456;11.064;2023-08-24T10:10:58;98171.97;;;36.24;34.42
18323;BME280;9287;49.456;11.064;2023-08-24T10:13:45;98170.91;;;34.11;37.47
18323;BME280;9287;49.456;11.064;2023-08-24T10:16:16;98165.06;;;34.26;38.33
18323;BME280;9287;49.456;11.064;2023-08-24T10:18:47;98154.00;;;35.60;35.82
18323;BME280;9287;49.456;11.064;2023-08-24T10:21:15;98158.38;;;35.55;36.82
18323;BME280;9287;49.456;11.064;2023-08-24T10:23:45;98156.28;;;34.24;38.15
18323;BME280;9287;49.456;11.064;2023-08-24T10:26:16;98146.66;;;34.59;36.76
18323;BME280;9287;49.456;11.064;2023-08-24T10:28:45;98149.69;;;31.09;41.65
18323;BME280;9287;49.456;11.064;2023-08-24T10:31:14;98143.78;;;32.27;41.24
18323;BME280;9287;49.456;11.064;2023-08-24T10:33:42;98131.91;;;32.03;42.25
18323;BME280;9287;49.456;11.064;2023-08-24T10:36:12;98135.78;;;31.70;43.26
18323;BME280;9287;49.456;11.064;2023-08-24T10:38:41;98132.09;;;31.79;43.01
18323;BME280;9287;49.456;11.064;2023-08-24T10:41:11;98137.41;;;32.12;43.16
18323;BME280;9287;49.456;11.064;2023-08-24T10:43:48;98135.53;;;32.70;42.49
18323;BME280;9287;49.456;11.064;2023-08-24T10:46:17;98128.91;;;32.73;42.35
18323;BME280;9287;49.456;11.064;2023-08-24T10:48:57;98123.13;;;31.80;44.55
18323;BME280;9287;49.456;11.064;2023-08-24T10:51:26;98132.94;;;30.91;46.28
18323;BME280;9287;49.456;11.064;2023-08-24T10:53:57;98119.13;;;31.08;45.68
18323;BME280;9287;49.456;11.064;2023-08-24T10:56:30;98118.25;;;30.87;47.73
18323;BME280;9287;49.456;11.064;2023-08-24T10:59:14;98117.69;;;31.62;46.34
18323;BME280;9287;49.456;11.064;2023-08-24T11:01:43;98114.75;;;31.86;45.18
18323;BME280;9287;49.456;11.064;2023-08-24T11:04:11;98103.91;;;32.05;44.35
18323;BME280;9287;49.456;11.064;2023-08-24T11:06:53;98110.31;;;33.24;41.72
18323;BME280;9287;49.456;11.064;2023-08-24T11:09:22;98094.16;;;32.06;44.57
18323;BME280;9287;49.456;11.064;2023-08-24T11:11:57;98094.84;;;31.10;45.28
18323;BME280;9287;49.456;11.064;2023-08-24T11:14:27;98099.91;;;30.77;47.66
18323;BME280;9287;49.456;11.064;2023-08-24T11:16:58;98091.00;;;31.43;47.35
18323;BME280;9287;49.456;11.064;2023-08-24T11:19:26;98091.09;;;31.48;46.78
18323;BME280;9287;49.456;11.064;2023-08-24T11:21:57;98078.66;;;31.96;45.75
18323;BME280;9287;49.456;11.064;2023-08-24T11:24:26;98057.28;;;32.56;43.84
18323;BME280;9287;49.456;11.064;2023-08-24T11:26:54;98064.13;;;31.82;46.82
18323;BME280;9287;49.456;11.064;2023-08-24T11:29:28;98058.91;;;32.94;44.62
18323;BME280;9287;49.456;11.064;2023-08-24T11:31:57;98065.38;;;32.22;44.68
18323;BME280;9287;49.456;11.064;2023-08-24T11:34:26;98057.34;;;31.95;47.17
18323;BME280;9287;49.456;11.064;2023-08-24T11:36:53;98057.25;;;31.89;44.74
18323;BME280;9287;49.456;11.064;2023-08-24T11:39:22;98063.75;;;32.15;43.38
18323;BME280;9287;49.456;11.064;2023-08-24T11:41:59;98059.22;;;33.01;41.67
18323;BME280;9287;49.456;11.064;2023-08-24T11:44:29;98055.44;;;33.47;40.38
18323;BME280;9287;49.456;11.064;2023-08-24T11:46:58;98052.94;;;32.14;41.91
18323;BME280;9287;49.456;11.064;2023-08-24T11:49:26;98044.91;;;32.79;42.54
18323;BME280;9287;49.456;11.064;2023-08-24T11:51:54;98055.25;;;32.62;42.70
18323;BME280;9287;49.456;11.064;2023-08-24T11:54:23;98057.41;;;32.98;41.60
18323;BME280;9287;49.456;11.064;2023-08-24T11:56:51;98047.50;;;32.82;41.56
18323;BME280;9287;49.456;11.064;2023-08-24T11:59:20;98033.97;;;32.40;41.92
18323;BME280;9287;49.456;11.064;2023-08-24T12:01:50;98039.28;;;32.59;42.76
18323;BME280;9287;49.456;11.064;2023-08-24T12:04:19;98025.84;;;32.02;41.28
18323;BME280;9287;49.456;11.064;2023-08-24T12:06:47;98024.28;;;32.01;42.04
18323;BME280;9287;49.456;11.064;2023-08-24T12:09:15;98020.03;;;32.31;40.15
18323;BME280;9287;49.456;11.064;2023-08-24T12:11:43;98029.50;;;32.54;38.92
18323;BME280;9287;49.456;11.064;2023-08-24T12:14:16;98006.38;;;31.63;40.04
18323;BME280;9287;49.456;11.064;2023-08-24T12:16:45;98015.53;;;31.58;40.42
18323;BME280;9287;49.456;11.064;2023-08-24T12:19:14;98007.09;;;31.78;39.70
18323;BME280;9287;49.456;11.064;2023-08-24T12:21:43;98000.06;;;32.40;38.68
18323;BME280;9287;49.456;11.064;2023-08-24T12:24:13;97997.59;;;31.06;41.41
18323;BME280;9287;49.456;11.064;2023-08-24T12:26:42;97982.09;;;31.51;41.01
18323;BME280;9287;49.456;11.064;2023-08-24T12:29:09;97990.22;;;32.62;38.65
18323;BME280;9287;49.456;11.064;2023-08-24T12:31:42;97990.41;;;32.01;39.01
18323;BME280;9287;49.456;11.064;2023-08-24T12:34:15;97978.38;;;32.58;38.62
18323;BME280;9287;49.456;11.064;2023-08-24T12:36:44;97975.44;;;32.72;37.45
18323;BME280;9287;49.456;11.064;2023-08-24T12:39:12;97967.19;;;32.37;38.73
18323;BME280;9287;49.456;11.064;2023-08-24T12:41:42;97965.38;;;32.14;38.14
18323;BME280;9287;49.456;11.064;2023-08-24T12:44:09;97964.50;;;32.28;39.13
18323;BME280;9287;49.456;11.064;2023-08-24T12:46:41;97961.28;;;32.15;39.72
18323;BME280;9287;49.456;11.064;2023-08-24T12:49:09;97965.34;;;32.66;39.14
18323;BME280;9287;49.456;11.064;2023-08-24T12:51:38;97956.16;;;32.71;38.43
18323;BME280;9287;49.456;11.064;2023-08-24T12:54:08;97952.22;;;32.31;39.38
18323;BME280;9287;49.456;11.064;2023-08-24T12:56:38;97936.47;;;31.99;40.05
18323;BME280;9287;49.456;11.064;2023-08-24T12:59:06;97934.81;;;31.46;42.03
18323;BME280;9287;49.456;11.064;2023-08-24T13:01:35;97936.47;;;31.99;41.60
18323;BME280;9287;49.456;11.064;2023-08-24T13:04:03;97929.38;;;32.09;40.55
18323;BME280;9287;49.456;11.064;2023-08-24T13:06:32;97918.34;;;32.11;41.45